Sinsuzuka — JD4131 — position and weather

sailwx.info

Track history (hours):
 
Tides and Currents Weather Stations Pressure Air Temp Water Temp Dewpoint Dewpoint Depression Visibility Wind Speed Wind Dir Waves Ship Positions

Sinsuzuka

Last reported at 2018-Jan-18 16:00 UTC. Time now 2018-Jan-18 16:12 UTC.
Position N 33°16' E 131°48'.

Length 49 m; draft 3.5 m.

Type: Tanker. MMSI: 431009017.

Date/timePositionNaut miles runAvg speedWind from/ knotsBaromVisibWave heightAir tempDewpointWater temp
2018-Jan-18 16:00N 33°16' E 131°48'0 0.0
2018-Jan-18 15:23N 33°16' E 131°48'0 0.0
2018-Jan-18 15:00N 33°16' E 131°48'0 0.0
2018-Jan-18 14:30N 33°16' E 131°48'0 0.0
2018-Jan-18 14:00N 33°16' E 131°48'0 0.0
2018-Jan-18 13:28N 33°16' E 131°48'0 0.0
2018-Jan-18 12:58N 33°16' E 131°48'6 8.8
2018-Jan-18 12:17N 33°21' E 131°52'310.8
2018-Jan-18 12:00N 33°23' E 131°54'510.2
2018-Jan-18 11:28N 33°27' E 131°59'2010.0
2018-Jan-18 09:28N 33°41' E 132°16'810.8
2018-Jan-18 08:42N 33°46' E 132°24'811.0
2018-Jan-18 08:00N 33°50' E 132°32'611.7
2018-Jan-18 07:29N 33°54' E 132°37'612.6
2018-Jan-18 07:00N 33°58' E 132°43'  
2018-Jan-12 11:19N 34°03' E 131°44'3 9.3
2018-Jan-12 11:00N 33°60' E 131°44'711.0
2018-Jan-12 10:23N 33°55' E 131°50'511.2
2018-Jan-12 09:58N 33°54' E 131°55'1210.7
2018-Jan-12 08:52N 33°50' E 132°09'511.2
2018-Jan-12 08:28N 33°50' E 132°14'1110.5
2018-Jan-12 07:26N 33°53' E 132°27'510.8
2018-Jan-12 06:56N 33°57' E 132°32'511.0
2018-Jan-12 06:30N 34°00' E 132°36'611.5
2018-Jan-12 06:00N 34°04' E 132°41'5 0.7
2018-Jan-11 23:02N 34°01' E 132°46'010.9
2018-Jan-11 22:59N 34°01' E 132°46'911.4
2018-Jan-11 22:09N 33°52' E 132°42'1 9.9
2018-Jan-11 22:00N 33°51' E 132°42'  
Track history (hours):
 
Tides and Currents Weather Stations Pressure Air Temp Water Temp Dewpoint Dewpoint Depression Visibility Wind Speed Wind Dir Waves Ship Positions

Sinsuzuka

Last reported at 2018-Jan-18 16:00 UTC. Time now 2018-Jan-18 16:12 UTC.
Position N 33°16' E 131°48'.

Length 49 m; draft 3.5 m.

Type: Tanker. MMSI: 431009017.

Date/timePositionNaut miles runAvg speedWind from/ knotsBaromVisibWave heightAir tempDewpointWater temp
2018-Jan-18 16:00N 33°16' E 131°48'0 0.0
2018-Jan-18 15:23N 33°16' E 131°48'0 0.0
2018-Jan-18 15:00N 33°16' E 131°48'0 0.0
2018-Jan-18 14:30N 33°16' E 131°48'0 0.0
2018-Jan-18 14:00N 33°16' E 131°48'0 0.0
2018-Jan-18 13:28N 33°16' E 131°48'0 0.0
2018-Jan-18 12:58N 33°16' E 131°48'6 8.8
2018-Jan-18 12:17N 33°21' E 131°52'310.8
2018-Jan-18 12:00N 33°23' E 131°54'510.2
2018-Jan-18 11:28N 33°27' E 131°59'2010.0
2018-Jan-18 09:28N 33°41' E 132°16'810.8
2018-Jan-18 08:42N 33°46' E 132°24'811.0
2018-Jan-18 08:00N 33°50' E 132°32'611.7
2018-Jan-18 07:29N 33°54' E 132°37'612.6
2018-Jan-18 07:00N 33°58' E 132°43'  
2018-Jan-12 11:19N 34°03' E 131°44'3 9.3
2018-Jan-12 11:00N 33°60' E 131°44'711.0
2018-Jan-12 10:23N 33°55' E 131°50'511.2
2018-Jan-12 09:58N 33°54' E 131°55'1210.7
2018-Jan-12 08:52N 33°50' E 132°09'511.2
2018-Jan-12 08:28N 33°50' E 132°14'1110.5
2018-Jan-12 07:26N 33°53' E 132°27'510.8
2018-Jan-12 06:56N 33°57' E 132°32'511.0
2018-Jan-12 06:30N 34°00' E 132°36'611.5
2018-Jan-12 06:00N 34°04' E 132°41'5 0.7
2018-Jan-11 23:02N 34°01' E 132°46'010.9
2018-Jan-11 22:59N 34°01' E 132°46'911.4
2018-Jan-11 22:09N 33°52' E 132°42'1 9.9
2018-Jan-11 22:00N 33°51' E 132°42'  

Dump ship's entire track history